Coronhach, Canada
Current Conditions -  °F | °C
As of 5:53 AM on Friday 31 Oct 2014 (Local Time) from KOLF Reporting Station
Overcast Overcast  
Wind Chill: 29°   Ceiling: 1500
Heat Index: 36°   Visibility: 9mi
Dew Point: 30°   Wind: 9mph
Humidity: 79%   Direction: 120°ESE
Pressure: 30.24"   Gusts: NA
Location:  49.11°N, 105.51°W
Report Text: KOLF 311153Z AUTO 12008KT 9SM OVC015 02/M01 A3024 RMK AO2 SLP259 T00221011 10033 20022 58018
Loading
Personal Weather Stations






























Interactive Weather Map
Tropical Storm Tracking
New forecast layout! Learn more

10-Day Weather Forecast

Advertisements
Track Severe Weather on mobile